ΕΜΥ, Εθνική Μετεωρολογική Υπηρεσία - Δελτία Καιρού, Προγνώσεις

ΑΕΡΟΝΑΥΤΙΛΙΑ

GREEK AIRPORTS CODES

TAF LGAV 121700Z 1218/1318 VRB05KT 9999 FEW010 SCT025 PROB40 TEMPO 1218/1306 5000 RA SCT010 BKN020 BKN070 PROB30 TEMPO 1218/1220 4000 TSRA SCT010 FEW018CB BKN020 BKN070 BECMG 1307/1309 24010KT=

EUROPEAN AIRPORTS CODES

LFPO 121800Z 17012KT 7000 -RA BKN007 BKN014 FEW020CB 06/05Q0988 TEMPO 17018G32KT 4000 RA BKN006 SCT020CB=